createdAt,value
2022-10-01T00:02:53.364Z,86.65
2022-10-01T00:06:09.300Z,86.78
2022-10-01T00:09:15.174Z,86.94
2022-10-01T00:12:21.043Z,86.75
2022-10-01T00:15:27.661Z,86.85
2022-10-01T00:18:33.503Z,86.83
2022-10-01T00:21:39.365Z,87.01
2022-10-01T00:24:45.359Z,86.92
2022-10-01T00:27:51.282Z,86.77
2022-10-01T00:30:57.207Z,87.03
2022-10-01T00:34:04.518Z,86.85
2022-10-01T00:37:10.839Z,86.76
2022-10-01T00:40:16.771Z,86.84
2022-10-01T00:43:25.824Z,86.87
2022-10-01T00:46:38.982Z,86.94
2022-10-01T00:49:47.387Z,86.83
2022-10-01T00:52:58.130Z,86.73
2022-10-01T00:56:04.669Z,86.85
2022-10-01T00:59:11.659Z,86.72
2022-10-01T01:02:17.558Z,86.76
2022-10-01T01:05:24.482Z,86.89
2022-10-01T01:08:30.598Z,86.81
2022-10-01T01:11:40.646Z,86.93
2022-10-01T01:14:54.587Z,86.98
2022-10-01T01:18:09.453Z,86.86
2022-10-01T01:21:33.803Z,86.96
2022-10-01T01:24:53.065Z,87.04
2022-10-01T01:28:13.786Z,87.03
2022-10-01T01:31:25.360Z,87.00
2022-10-01T01:34:33.979Z,86.85
2022-10-01T01:37:46.067Z,87.13
2022-10-01T01:40:55.977Z,87.15
2022-10-01T01:44:07.028Z,87.07
2022-10-01T01:47:14.570Z,87.13
2022-10-01T01:50:21.215Z,87.26
2022-10-01T01:53:27.559Z,87.20
2022-10-01T01:56:35.882Z,87.16
2022-10-01T01:59:43.382Z,87.23
2022-10-01T02:02:53.772Z,87.32
2022-10-01T02:06:13.534Z,87.22
2022-10-01T02:09:28.576Z,87.34
2022-10-01T02:12:50.091Z,87.22
2022-10-01T02:16:06.485Z,87.49
2022-10-01T02:19:23.341Z,87.35
2022-10-01T02:22:41.252Z,87.34
2022-10-01T02:25:52.408Z,87.35
2022-10-01T02:29:04.749Z,87.34
2022-10-01T02:32:12.537Z,87.36
2022-10-01T02:35:20.522Z,87.39
2022-10-01T02:38:27.449Z,87.37
2022-10-01T02:41:37.410Z,87.47
2022-10-01T02:44:45.967Z,87.32
2022-10-01T02:47:55.874Z,87.35
2022-10-01T02:51:16.567Z,87.25
2022-10-01T02:54:28.636Z,87.38
2022-10-01T02:57:34.910Z,87.32
2022-10-01T03:00:40.769Z,87.32
2022-10-01T03:03:46.629Z,87.34
2022-10-01T03:06:52.486Z,87.38
2022-10-01T03:09:58.986Z,87.40
2022-10-01T03:13:06.263Z,87.49
2022-10-01T03:16:12.176Z,87.58
2022-10-01T03:19:18.343Z,87.58
2022-10-01T03:22:24.975Z,87.55
2022-10-01T03:25:30.821Z,87.43
2022-10-01T03:28:36.659Z,87.52
2022-10-01T03:31:42.600Z,87.48
2022-10-01T03:34:48.806Z,87.37
2022-10-01T03:37:53.141Z,87.34
2022-10-01T03:40:59.091Z,87.83
2022-10-01T03:44:05.108Z,87.80
2022-10-01T03:47:11.036Z,87.94
2022-10-01T03:50:17.082Z,87.86
2022-10-01T03:53:23.015Z,87.87
2022-10-01T03:56:29.269Z,87.95
2022-10-01T03:59:36.178Z,87.68
2022-10-01T04:02:42.130Z,87.73
2022-10-01T04:05:48.642Z,87.80
2022-10-01T04:08:54.503Z,87.96
2022-10-01T04:12:00.551Z,87.68
2022-10-01T04:15:07.134Z,87.95
2022-10-01T04:18:13.319Z,87.99
2022-10-01T04:21:17.535Z,88.21
2022-10-01T04:24:23.406Z,88.40
2022-10-01T04:27:29.270Z,88.23
2022-10-01T04:30:37.858Z,88.23
2022-10-01T04:33:44.003Z,88.30
2022-10-01T04:36:48.212Z,88.49
2022-10-01T04:39:54.446Z,88.41
2022-10-01T04:43:00.515Z,88.23
2022-10-01T04:46:06.480Z,88.29
2022-10-01T04:49:12.341Z,88.42
2022-10-01T04:52:18.230Z,88.40
2022-10-01T04:55:24.635Z,88.28
2022-10-01T04:58:31.579Z,88.33
2022-10-01T05:01:37.972Z,88.31
2022-10-01T05:04:44.299Z,88.40
2022-10-01T05:07:51.210Z,88.40
2022-10-01T05:10:57.059Z,88.39
2022-10-01T05:14:03.105Z,88.47
2022-10-01T05:17:09.274Z,88.52
2022-10-01T05:20:16.929Z,88.54
2022-10-01T05:23:22.769Z,88.46
2022-10-01T05:26:29.753Z,88.55
2022-10-01T05:29:35.615Z,88.47
2022-10-01T05:32:41.990Z,88.54
2022-10-01T05:35:47.987Z,88.75
2022-10-01T05:38:53.835Z,88.78
2022-10-01T05:42:05.361Z,88.80
2022-10-01T05:45:13.498Z,88.73
2022-10-01T05:48:19.347Z,88.76
2022-10-01T05:51:25.323Z,88.68
2022-10-01T05:54:31.738Z,88.77
2022-10-01T05:57:37.654Z,88.71
2022-10-01T06:00:44.250Z,88.83
2022-10-01T06:03:53.698Z,88.77
2022-10-01T06:06:59.660Z,88.90
2022-10-01T06:10:06.521Z,88.97
2022-10-01T06:13:17.983Z,88.89
2022-10-01T06:16:24.014Z,88.90
2022-10-01T06:19:29.937Z,88.94
2022-10-01T06:22:35.850Z,88.93
2022-10-01T06:25:42.935Z,89.09
2022-10-01T06:28:52.780Z,89.05
2022-10-01T06:31:58.645Z,89.06
2022-10-01T06:35:04.919Z,88.91
2022-10-01T06:38:11.038Z,89.05
2022-10-01T06:41:15.233Z,88.89
2022-10-01T06:44:21.045Z,88.93
2022-10-01T06:47:26.982Z,89.02
2022-10-01T06:50:34.007Z,88.95
2022-10-01T06:53:39.966Z,89.02
2022-10-01T06:56:45.829Z,89.02
2022-10-01T06:59:52.222Z,89.01
2022-10-01T07:02:58.841Z,89.07
2022-10-01T07:06:11.143Z,88.98
2022-10-01T07:09:17.014Z,89.09
2022-10-01T07:12:23.139Z,89.15
2022-10-01T07:15:27.366Z,89.17
2022-10-01T07:18:33.201Z,89.13
2022-10-01T07:21:39.065Z,88.92
2022-10-01T07:24:44.910Z,89.14
2022-10-01T07:27:50.798Z,89.08
2022-10-01T07:31:05.204Z,89.05
2022-10-01T07:34:11.050Z,89.07
2022-10-01T07:37:16.959Z,89.07
2022-10-01T07:40:22.838Z,88.96
2022-10-01T07:43:28.690Z,88.79
2022-10-01T07:46:34.942Z,89.10
2022-10-01T07:49:40.855Z,89.11
2022-10-01T07:52:46.685Z,89.08
2022-10-01T07:55:52.551Z,89.02
2022-10-01T07:58:59.506Z,88.93
2022-10-01T08:02:05.431Z,89.07
2022-10-01T08:05:22.043Z,88.90
2022-10-01T08:08:28.014Z,89.07
2022-10-01T08:11:34.604Z,88.82
2022-10-01T08:14:40.730Z,88.88
2022-10-01T08:17:47.067Z,88.81
2022-10-01T08:20:53.249Z,88.76
2022-10-01T08:23:59.125Z,88.83
2022-10-01T08:27:05.091Z,88.69
2022-10-01T08:30:12.622Z,88.71
2022-10-01T08:33:18.578Z,88.78
2022-10-01T08:36:24.432Z,88.86
2022-10-01T08:39:30.275Z,88.77
2022-10-01T08:43:00.187Z,88.96
2022-10-01T08:46:09.447Z,88.96
2022-10-01T08:49:22.443Z,88.93
2022-10-01T08:52:31.184Z,88.92
2022-10-01T08:55:38.064Z,88.86
2022-10-01T08:58:54.731Z,89.06
2022-10-01T09:02:00.912Z,88.83
2022-10-01T09:05:09.333Z,88.67
2022-10-01T09:08:25.458Z,88.95
2022-10-01T09:11:45.776Z,88.91
2022-10-01T09:15:05.679Z,88.67
2022-10-01T09:18:23.095Z,88.83
2022-10-01T09:21:42.335Z,88.83
2022-10-01T09:24:53.359Z,88.64
2022-10-01T09:28:08.455Z,88.35
2022-10-01T09:31:22.964Z,88.38
2022-10-01T09:34:35.300Z,88.42
2022-10-01T09:37:48.338Z,88.00
2022-10-01T09:40:57.012Z,88.07
2022-10-01T09:44:03.190Z,87.70
2022-10-01T09:47:19.404Z,88.00
2022-10-01T09:50:35.122Z,87.89
2022-10-01T09:53:46.310Z,87.67
2022-10-01T09:56:56.378Z,87.74
2022-10-01T10:00:10.165Z,87.84
2022-10-01T10:03:26.765Z,87.85
2022-10-01T10:06:34.357Z,87.86
2022-10-01T10:09:41.565Z,87.67
2022-10-01T10:12:49.321Z,87.58
2022-10-01T10:15:57.829Z,87.39
2022-10-01T10:19:10.466Z,87.68
2022-10-01T10:22:25.030Z,87.43
2022-10-01T10:25:30.970Z,87.42
2022-10-01T10:28:46.084Z,87.07
2022-10-01T10:31:52.343Z,87.09
2022-10-01T10:35:03.738Z,87.47
2022-10-01T10:38:20.511Z,87.33
2022-10-01T10:41:27.419Z,87.18
2022-10-01T10:44:37.442Z,87.05
2022-10-01T10:47:49.964Z,87.10
2022-10-01T10:51:02.720Z,87.29
2022-10-01T10:54:21.306Z,87.38
2022-10-01T10:57:30.130Z,87.48
2022-10-01T11:00:44.937Z,87.11
2022-10-01T11:03:55.514Z,87.17
2022-10-01T11:07:02.826Z,87.11
2022-10-01T11:10:35.494Z,86.87
2022-10-01T11:13:58.508Z,87.25
2022-10-01T11:17:28.397Z,87.26
2022-10-01T11:20:47.563Z,87.25
2022-10-01T11:24:11.630Z,87.27
2022-10-01T11:27:26.563Z,87.13
2022-10-01T11:30:41.032Z,87.13
2022-10-01T11:33:59.530Z,87.13
2022-10-01T11:37:18.873Z,87.11
2022-10-01T11:40:30.144Z,87.00
2022-10-01T11:43:41.448Z,87.11
2022-10-01T11:46:54.866Z,87.32
2022-10-01T11:50:04.316Z,87.53
2022-10-01T11:53:17.082Z,87.43
2022-10-01T11:59:50.243Z,87.40
2022-10-01T12:03:00.930Z,87.63
2022-10-01T12:06:14.988Z,87.48
2022-10-01T12:09:26.311Z,87.40
2022-10-01T12:12:37.160Z,87.33
2022-10-01T12:15:51.307Z,86.95
2022-10-01T12:19:03.918Z,87.26
2022-10-01T12:22:16.243Z,87.41
2022-10-01T12:25:29.097Z,87.51
2022-10-01T12:28:55.562Z,87.68
2022-10-01T12:32:11.746Z,87.66
2022-10-01T12:35:36.090Z,87.73
2022-10-01T12:38:55.609Z,87.53
2022-10-01T12:42:13.051Z,87.67
2022-10-01T12:45:31.615Z,87.67
2022-10-01T12:48:47.695Z,87.49
2022-10-01T12:52:02.116Z,87.55
2022-10-01T12:55:29.499Z,87.46
2022-10-01T12:59:08.846Z,87.56
2022-10-01T13:02:30.556Z,87.74
2022-10-01T13:05:44.737Z,87.70
2022-10-01T13:09:02.116Z,87.42
2022-10-01T13:12:23.348Z,87.72
2022-10-01T13:15:35.356Z,87.43
2022-10-01T13:18:54.574Z,87.64
2022-10-01T13:22:14.625Z,87.62
2022-10-01T13:25:32.276Z,87.63
2022-10-01T13:28:53.826Z,87.80
2022-10-01T13:32:01.338Z,87.85
2022-10-01T13:35:25.911Z,87.88
2022-10-01T13:38:41.053Z,88.07
2022-10-01T13:41:48.156Z,88.01
2022-10-01T13:44:59.852Z,87.73
2022-10-01T13:48:14.844Z,87.54
2022-10-01T13:51:21.685Z,87.67
2022-10-01T13:54:31.228Z,87.74
2022-10-01T13:57:39.447Z,87.90
2022-10-01T14:00:53.720Z,87.65
2022-10-01T14:04:08.500Z,87.72
2022-10-01T14:07:22.301Z,87.70
2022-10-01T14:10:57.956Z,87.60
2022-10-01T14:14:31.875Z,87.51
2022-10-01T14:17:39.169Z,87.70
2022-10-01T14:21:00.276Z,87.63
2022-10-01T14:24:17.103Z,87.63
2022-10-01T14:27:30.252Z,87.49
2022-10-01T14:30:44.258Z,87.57
2022-10-01T14:34:36.920Z,87.63
2022-10-01T14:37:43.535Z,87.49
2022-10-01T14:40:51.403Z,87.39
2022-10-01T14:43:57.649Z,87.23
2022-10-01T14:47:13.396Z,87.36
2022-10-01T14:50:20.367Z,87.45
2022-10-01T14:53:28.511Z,87.27
2022-10-01T14:56:35.779Z,87.35
2022-10-01T14:59:43.584Z,87.44
2022-10-01T15:02:52.000Z,87.63
2022-10-01T15:06:12.863Z,87.56
2022-10-01T15:09:20.873Z,87.52
2022-10-01T15:12:28.360Z,87.57
2022-10-01T15:15:41.207Z,87.76
2022-10-01T15:18:53.546Z,87.44
2022-10-01T15:22:02.042Z,87.63
2022-10-01T15:25:17.220Z,87.88
2022-10-01T15:28:32.098Z,87.76
2022-10-01T15:31:39.712Z,87.87
2022-10-01T15:34:49.914Z,87.68
2022-10-01T15:38:00.792Z,87.85
2022-10-01T15:41:30.583Z,87.73
2022-10-01T15:44:51.427Z,87.80
2022-10-01T15:47:58.231Z,87.98
2022-10-01T15:51:07.420Z,87.67
2022-10-01T15:54:17.503Z,87.78
2022-10-01T15:57:25.897Z,87.73
2022-10-01T16:00:35.277Z,87.81
2022-10-01T16:03:49.526Z,87.75
2022-10-01T16:06:56.070Z,88.01
2022-10-01T16:10:15.338Z,87.86
2022-10-01T16:13:42.104Z,87.76
2022-10-01T16:16:48.536Z,87.86
2022-10-01T16:19:56.842Z,87.81
2022-10-01T16:23:37.003Z,87.92
2022-10-01T16:26:44.436Z,87.86
2022-10-01T16:30:05.607Z,87.84
2022-10-01T16:33:13.336Z,87.77
2022-10-01T16:36:24.195Z,87.86
2022-10-01T16:39:30.391Z,87.76
2022-10-01T16:42:37.413Z,87.93
2022-10-01T16:45:44.065Z,87.91
2022-10-01T16:48:52.597Z,87.78
2022-10-01T16:51:59.099Z,87.71
2022-10-01T16:55:05.415Z,87.83
2022-10-01T16:58:11.808Z,87.77
2022-10-01T17:01:17.979Z,87.74
2022-10-01T17:04:29.225Z,87.86
2022-10-01T17:07:38.036Z,88.02
2022-10-01T17:10:47.863Z,87.72
2022-10-01T17:13:54.361Z,87.84
2022-10-01T17:17:00.491Z,87.83
2022-10-01T17:20:05.726Z,87.91
2022-10-01T17:23:13.948Z,87.92
2022-10-01T17:26:20.242Z,87.79
2022-10-01T17:29:26.831Z,87.85
2022-10-01T17:32:34.107Z,87.99
2022-10-01T17:35:44.784Z,87.76
2022-10-01T17:38:50.975Z,87.94
2022-10-01T17:41:57.819Z,87.64
2022-10-01T17:45:05.544Z,87.86
2022-10-01T17:48:12.089Z,87.81
2022-10-01T17:51:18.515Z,87.91
2022-10-01T17:54:25.401Z,87.81
2022-10-01T17:57:31.455Z,87.76
2022-10-01T18:00:36.034Z,87.72
2022-10-01T18:03:42.621Z,87.64
2022-10-01T18:06:49.799Z,87.88
2022-10-01T18:09:56.202Z,87.85
2022-10-01T18:13:02.383Z,87.60
2022-10-01T18:16:14.123Z,87.91
2022-10-01T18:22:48.796Z,87.87
2022-10-01T18:25:55.079Z,87.72
2022-10-01T18:29:01.293Z,87.76
2022-10-01T18:32:15.398Z,87.66
2022-10-01T18:35:29.213Z,87.83
2022-10-01T18:38:38.788Z,87.88
2022-10-01T18:41:45.503Z,87.70
2022-10-01T18:44:56.868Z,87.82
2022-10-01T18:48:16.814Z,87.78
2022-10-01T18:51:33.412Z,87.80
2022-10-01T18:55:03.773Z,87.91
2022-10-01T18:58:33.501Z,87.74
2022-10-01T19:01:48.671Z,87.89
2022-10-01T19:05:25.087Z,87.82
2022-10-01T19:08:52.985Z,87.70
2022-10-01T19:12:17.174Z,87.54
2022-10-01T19:15:38.711Z,87.51
2022-10-01T19:18:58.486Z,87.44
2022-10-01T19:22:14.965Z,87.29
2022-10-01T19:25:27.225Z,87.44
2022-10-01T19:28:49.847Z,87.54
2022-10-01T19:32:00.154Z,87.36
2022-10-01T19:35:17.102Z,87.53
2022-10-01T19:38:29.593Z,87.28
2022-10-01T19:41:43.344Z,87.29
2022-10-01T19:45:00.853Z,87.28
2022-10-01T19:48:15.274Z,86.89
2022-10-01T19:51:26.147Z,86.38
2022-10-01T19:54:35.186Z,86.09
2022-10-01T19:57:44.861Z,86.17
2022-10-01T20:00:57.122Z,86.20
2022-10-01T20:04:06.588Z,85.84
2022-10-01T20:07:18.593Z,86.03
2022-10-01T20:10:31.596Z,85.87
2022-10-01T20:13:55.474Z,85.86
2022-10-01T20:17:04.991Z,85.70
2022-10-01T20:20:19.039Z,85.89
2022-10-01T20:23:40.324Z,85.78
2022-10-01T20:26:53.610Z,85.72
2022-10-01T20:30:07.034Z,85.61
2022-10-01T20:33:24.251Z,85.67
2022-10-01T20:36:38.417Z,85.62
2022-10-01T20:39:49.589Z,85.48
2022-10-01T20:43:01.536Z,85.62
2022-10-01T20:46:11.986Z,85.52
2022-10-01T20:49:32.543Z,85.50
2022-10-01T20:52:47.339Z,85.68
2022-10-01T20:55:57.286Z,85.78
2022-10-01T20:59:09.569Z,85.80
2022-10-01T21:02:30.195Z,85.72
2022-10-01T21:05:42.790Z,85.48
2022-10-01T21:08:53.712Z,85.52
2022-10-01T21:12:04.646Z,85.63
2022-10-01T21:15:14.946Z,85.56
2022-10-01T21:18:29.471Z,85.50
2022-10-01T21:21:46.460Z,85.64
2022-10-01T21:25:02.984Z,85.46
2022-10-01T21:28:31.740Z,85.54
2022-10-01T21:31:49.789Z,85.61
2022-10-01T21:35:07.572Z,85.52
2022-10-01T21:38:28.630Z,85.58
2022-10-01T21:41:55.583Z,85.37
2022-10-01T21:45:14.687Z,85.59
2022-10-01T21:48:37.905Z,85.47
2022-10-01T21:51:58.719Z,85.43
2022-10-01T21:55:17.457Z,85.52
2022-10-01T21:58:37.216Z,85.39
2022-10-01T22:02:01.843Z,85.45
2022-10-01T22:05:23.527Z,85.27
2022-10-01T22:08:48.455Z,85.37
2022-10-01T22:11:59.637Z,85.39
2022-10-01T22:15:14.189Z,85.49
2022-10-01T22:18:26.201Z,85.43
2022-10-01T22:21:38.467Z,85.21
2022-10-01T22:24:50.581Z,85.32
2022-10-01T22:28:01.601Z,85.36
2022-10-01T22:31:12.303Z,85.50
2022-10-01T22:34:23.926Z,85.35
2022-10-01T22:37:34.502Z,85.45
2022-10-01T22:40:46.419Z,85.33
2022-10-01T22:43:52.658Z,85.31
2022-10-01T22:47:21.957Z,85.34
2022-10-01T22:50:39.709Z,85.38
2022-10-01T22:54:03.237Z,85.26
2022-10-01T22:57:29.754Z,85.17
2022-10-01T23:00:44.105Z,85.16
2022-10-01T23:04:09.552Z,85.11
2022-10-01T23:07:22.208Z,85.35
2022-10-01T23:10:39.556Z,85.21
2022-10-01T23:13:53.441Z,85.15
2022-10-01T23:17:05.615Z,85.17
2022-10-01T23:20:25.175Z,85.09
2022-10-01T23:23:34.009Z,85.23
2022-10-01T23:26:51.402Z,85.34
2022-10-01T23:30:11.857Z,85.33
2022-10-01T23:33:32.299Z,85.18
2022-10-01T23:36:46.347Z,85.02
2022-10-01T23:39:56.651Z,85.24
2022-10-01T23:43:10.771Z,85.19
2022-10-01T23:46:23.399Z,85.21
2022-10-01T23:49:33.839Z,85.28
2022-10-01T23:52:46.791Z,85.27
2022-10-01T23:56:18.115Z,85.09
2022-10-01T23:59:30.168Z,85.30
